sensor_id;sensor_type;location;lat;lon;timestamp;pressure;altitude;pressure_sealevel;temperature;humidity
47080;BME280;33067;49.296;14.470;2023-02-28T00:02:09;97930.13;;;0.80;39.61
47080;BME280;33067;49.296;14.470;2023-02-28T00:04:35;97927.16;;;1.55;38.39
47080;BME280;33067;49.296;14.470;2023-02-28T00:07:01;97926.80;;;1.23;38.99
47080;BME280;33067;49.296;14.470;2023-02-28T00:09:26;97927.13;;;1.15;38.97
47080;BME280;33067;49.296;14.470;2023-02-28T00:11:52;97929.21;;;1.16;38.61
47080;BME280;33067;49.296;14.470;2023-02-28T00:14:17;97922.87;;;1.32;38.04
47080;BME280;33067;49.296;14.470;2023-02-28T00:16:43;97922.38;;;1.72;38.21
47080;BME280;33067;49.296;14.470;2023-02-28T00:19:09;97920.76;;;1.35;38.60
47080;BME280;33067;49.296;14.470;2023-02-28T00:21:34;97915.64;;;1.39;38.59
47080;BME280;33067;49.296;14.470;2023-02-28T00:23:59;97921.37;;;1.23;38.51
47080;BME280;33067;49.296;14.470;2023-02-28T00:26:25;97916.28;;;1.36;38.46
47080;BME280;33067;49.296;14.470;2023-02-28T00:28:52;97919.22;;;1.35;38.56
47080;BME280;33067;49.296;14.470;2023-02-28T00:31:16;97921.26;;;1.18;38.52
47080;BME280;33067;49.296;14.470;2023-02-28T00:33:41;97916.78;;;1.38;38.30
47080;BME280;33067;49.296;14.470;2023-02-28T00:36:10;97921.02;;;1.35;38.43
47080;BME280;33067;49.296;14.470;2023-02-28T00:38:33;97923.24;;;1.50;37.73
47080;BME280;33067;49.296;14.470;2023-02-28T00:40:58;97918.65;;;1.39;37.70
47080;BME280;33067;49.296;14.470;2023-02-28T00:43:24;97919.67;;;1.46;37.60
47080;BME280;33067;49.296;14.470;2023-02-28T00:45:49;97920.20;;;0.96;38.29
47080;BME280;33067;49.296;14.470;2023-02-28T00:48:15;97920.80;;;1.48;37.75
47080;BME280;33067;49.296;14.470;2023-02-28T00:50:40;97914.73;;;1.49;37.92
47080;BME280;33067;49.296;14.470;2023-02-28T00:53:06;97915.43;;;1.37;37.70
47080;BME280;33067;49.296;14.470;2023-02-28T00:55:31;97911.25;;;0.97;38.30
47080;BME280;33067;49.296;14.470;2023-02-28T00:57:57;97909.55;;;1.49;37.57
47080;BME280;33067;49.296;14.470;2023-02-28T01:00:22;97913.83;;;1.53;37.59
47080;BME280;33067;49.296;14.470;2023-02-28T01:02:48;97908.78;;;1.92;37.35
47080;BME280;33067;49.296;14.470;2023-02-28T01:05:13;97910.31;;;1.12;37.81
47080;BME280;33067;49.296;14.470;2023-02-28T01:07:39;97908.90;;;1.55;37.70
47080;BME280;33067;49.296;14.470;2023-02-28T01:10:05;97906.91;;;1.30;37.90
47080;BME280;33067;49.296;14.470;2023-02-28T01:12:29;97901.65;;;1.90;37.28
47080;BME280;33067;49.296;14.470;2023-02-28T01:14:54;97904.17;;;2.18;36.96
47080;BME280;33067;49.296;14.470;2023-02-28T01:17:19;97902.55;;;2.42;36.61
47080;BME280;33067;49.296;14.470;2023-02-28T01:19:45;97899.68;;;1.56;36.74
47080;BME280;33067;49.296;14.470;2023-02-28T01:22:10;97903.88;;;1.98;36.57
47080;BME280;33067;49.296;14.470;2023-02-28T01:24:37;97902.36;;;1.70;36.66
47080;BME280;33067;49.296;14.470;2023-02-28T01:27:01;97900.65;;;1.98;36.29
47080;BME280;33067;49.296;14.470;2023-02-28T01:29:27;97900.60;;;1.75;36.49
47080;BME280;33067;49.296;14.470;2023-02-28T01:31:52;97897.75;;;1.75;36.90
47080;BME280;33067;49.296;14.470;2023-02-28T01:34:18;97897.13;;;1.65;36.86
47080;BME280;33067;49.296;14.470;2023-02-28T01:36:43;97900.16;;;1.35;37.13
47080;BME280;33067;49.296;14.470;2023-02-28T01:39:08;97900.23;;;1.67;36.62
47080;BME280;33067;49.296;14.470;2023-02-28T01:41:34;97901.44;;;1.42;37.43
47080;BME280;33067;49.296;14.470;2023-02-28T01:44:02;97901.02;;;1.10;36.16
47080;BME280;33067;49.296;14.470;2023-02-28T01:46:25;97906.27;;;0.35;37.56
47080;BME280;33067;49.296;14.470;2023-02-28T01:48:53;97905.61;;;1.14;36.63
47080;BME280;33067;49.296;14.470;2023-02-28T01:51:20;97902.18;;;0.89;36.99
47080;BME280;33067;49.296;14.470;2023-02-28T01:53:45;97899.12;;;0.75;37.13
47080;BME280;33067;49.296;14.470;2023-02-28T01:56:08;97896.71;;;0.67;36.90
47080;BME280;33067;49.296;14.470;2023-02-28T01:58:33;97896.27;;;0.60;37.05
47080;BME280;33067;49.296;14.470;2023-02-28T02:00:58;97898.21;;;1.13;36.52
47080;BME280;33067;49.296;14.470;2023-02-28T02:03:24;97892.47;;;1.00;36.23
47080;BME280;33067;49.296;14.470;2023-02-28T02:05:49;97888.49;;;1.33;36.09
47080;BME280;33067;49.296;14.470;2023-02-28T02:08:17;97889.68;;;1.51;35.62
47080;BME280;33067;49.296;14.470;2023-02-28T02:10:41;97886.33;;;1.70;35.59
47080;BME280;33067;49.296;14.470;2023-02-28T02:13:16;97884.74;;;1.78;35.48
47080;BME280;33067;49.296;14.470;2023-02-28T02:15:34;97884.35;;;1.73;35.26
47080;BME280;33067;49.296;14.470;2023-02-28T02:17:59;97881.40;;;1.76;35.09
47080;BME280;33067;49.296;14.470;2023-02-28T02:20:42;97879.71;;;2.15;35.31
47080;BME280;33067;49.296;14.470;2023-02-28T02:23:07;97879.43;;;2.07;35.13
47080;BME280;33067;49.296;14.470;2023-02-28T02:25:19;97879.41;;;2.12;35.37
47080;BME280;33067;49.296;14.470;2023-02-28T02:30:19;97875.81;;;1.58;35.72
47080;BME280;33067;49.296;14.470;2023-02-28T02:32:44;97876.30;;;1.03;36.09
47080;BME280;33067;49.296;14.470;2023-02-28T02:35:01;97874.83;;;1.95;35.45
47080;BME280;33067;49.296;14.470;2023-02-28T02:37:27;97873.11;;;1.72;35.41
47080;BME280;33067;49.296;14.470;2023-02-28T02:39:50;97876.64;;;1.76;35.04
47080;BME280;33067;49.296;14.470;2023-02-28T02:42:15;97878.71;;;1.52;35.27
47080;BME280;33067;49.296;14.470;2023-02-28T02:44:40;97872.69;;;1.73;35.64
47080;BME280;33067;49.296;14.470;2023-02-28T02:47:05;97872.83;;;1.11;35.64
47080;BME280;33067;49.296;14.470;2023-02-28T02:49:31;97872.23;;;1.45;35.59
47080;BME280;33067;49.296;14.470;2023-02-28T02:51:53;97874.54;;;1.79;35.30
47080;BME280;33067;49.296;14.470;2023-02-28T02:54:21;97874.12;;;1.43;35.36
47080;BME280;33067;49.296;14.470;2023-02-28T02:56:45;97874.32;;;1.27;35.89
47080;BME280;33067;49.296;14.470;2023-02-28T02:59:12;97874.27;;;1.51;36.11
47080;BME280;33067;49.296;14.470;2023-02-28T03:01:35;97875.47;;;1.44;36.69
47080;BME280;33067;49.296;14.470;2023-02-28T03:04:02;97876.36;;;1.31;37.05
47080;BME280;33067;49.296;14.470;2023-02-28T03:06:25;97872.02;;;1.48;37.43
47080;BME280;33067;49.296;14.470;2023-02-28T03:08:50;97872.19;;;1.32;37.52
47080;BME280;33067;49.296;14.470;2023-02-28T03:13:14;97876.15;;;1.86;36.70
47080;BME280;33067;49.296;14.470;2023-02-28T03:15:29;97878.57;;;1.79;37.01
47080;BME280;33067;49.296;14.470;2023-02-28T03:18:01;97880.21;;;1.86;37.22
47080;BME280;33067;49.296;14.470;2023-02-28T03:20:22;97876.61;;;1.90;37.23
47080;BME280;33067;49.296;14.470;2023-02-28T03:22:49;97876.68;;;1.69;37.45
47080;BME280;33067;49.296;14.470;2023-02-28T03:25:09;97873.90;;;1.78;38.15
47080;BME280;33067;49.296;14.470;2023-02-28T03:27:39;97875.22;;;1.51;37.71
47080;BME280;33067;49.296;14.470;2023-02-28T03:30:03;97876.84;;;1.08;38.81
47080;BME280;33067;49.296;14.470;2023-02-28T03:32:28;97877.16;;;1.59;38.09
47080;BME280;33067;49.296;14.470;2023-02-28T03:34:54;97878.02;;;0.49;39.32
47080;BME280;33067;49.296;14.470;2023-02-28T03:37:16;97876.14;;;0.75;38.65
47080;BME280;33067;49.296;14.470;2023-02-28T03:39:44;97880.51;;;0.48;38.69
47080;BME280;33067;49.296;14.470;2023-02-28T03:42:09;97877.44;;;0.31;39.20
47080;BME280;33067;49.296;14.470;2023-02-28T03:44:35;97880.50;;;0.54;38.84
47080;BME280;33067;49.296;14.470;2023-02-28T03:47:03;97881.52;;;0.59;38.09
47080;BME280;33067;49.296;14.470;2023-02-28T03:49:26;97888.25;;;-0.23;38.63
47080;BME280;33067;49.296;14.470;2023-02-28T03:51:50;97889.77;;;-0.02;38.71
47080;BME280;33067;49.296;14.470;2023-02-28T03:54:17;97889.03;;;-0.74;39.08
47080;BME280;33067;49.296;14.470;2023-02-28T03:56:43;97892.40;;;0.20;38.49
47080;BME280;33067;49.296;14.470;2023-02-28T03:59:08;97890.82;;;0.73;37.86
47080;BME280;33067;49.296;14.470;2023-02-28T04:01:35;97891.51;;;0.56;37.65
47080;BME280;33067;49.296;14.470;2023-02-28T04:03:56;97892.54;;;0.47;37.84
47080;BME280;33067;49.296;14.470;2023-02-28T04:06:23;97894.13;;;0.60;37.45
47080;BME280;33067;49.296;14.470;2023-02-28T04:08:48;97895.98;;;0.84;37.18
47080;BME280;33067;49.296;14.470;2023-02-28T04:11:20;97894.05;;;0.15;37.71
47080;BME280;33067;49.296;14.470;2023-02-28T04:13:38;97895.08;;;0.48;37.54
47080;BME280;33067;49.296;14.470;2023-02-28T04:16:07;97894.77;;;0.83;36.92
47080;BME280;33067;49.296;14.470;2023-02-28T04:18:29;97895.20;;;0.53;36.92
47080;BME280;33067;49.296;14.470;2023-02-28T04:20:55;97903.58;;;0.23;37.42
47080;BME280;33067;49.296;14.470;2023-02-28T04:23:20;97902.39;;;0.05;37.84
47080;BME280;33067;49.296;14.470;2023-02-28T04:25:45;97901.03;;;0.03;37.91
47080;BME280;33067;49.296;14.470;2023-02-28T04:28:10;97902.48;;;0.03;37.61
47080;BME280;33067;49.296;14.470;2023-02-28T04:30:37;97905.19;;;0.02;37.82
47080;BME280;33067;49.296;14.470;2023-02-28T04:33:02;97900.31;;;-0.95;39.12
47080;BME280;33067;49.296;14.470;2023-02-28T04:35:27;97904.81;;;-1.21;39.01
47080;BME280;33067;49.296;14.470;2023-02-28T04:37:53;97901.33;;;-1.25;38.93
47080;BME280;33067;49.296;14.470;2023-02-28T04:40:19;97898.15;;;-0.78;38.67
47080;BME280;33067;49.296;14.470;2023-02-28T04:42:44;97894.14;;;-0.24;37.80
47080;BME280;33067;49.296;14.470;2023-02-28T04:45:10;97892.74;;;-0.43;37.92
47080;BME280;33067;49.296;14.470;2023-02-28T04:47:35;97895.08;;;-0.39;37.35
47080;BME280;33067;49.296;14.470;2023-02-28T04:50:00;97894.00;;;-0.13;37.23
47080;BME280;33067;49.296;14.470;2023-02-28T04:52:27;97891.67;;;-0.35;37.65
47080;BME280;33067;49.296;14.470;2023-02-28T04:54:52;97893.61;;;-0.00;36.97
47080;BME280;33067;49.296;14.470;2023-02-28T04:57:18;97889.83;;;-0.54;37.62
47080;BME280;33067;49.296;14.470;2023-02-28T04:59:43;97890.61;;;-1.31;38.55
47080;BME280;33067;49.296;14.470;2023-02-28T05:02:09;97889.87;;;-0.94;38.48
47080;BME280;33067;49.296;14.470;2023-02-28T05:04:35;97892.76;;;-0.58;38.27
47080;BME280;33067;49.296;14.470;2023-02-28T05:07:01;97892.84;;;-0.95;38.31
47080;BME280;33067;49.296;14.470;2023-02-28T05:09:26;97889.74;;;-0.66;38.11
47080;BME280;33067;49.296;14.470;2023-02-28T05:11:51;97885.45;;;-0.54;38.15
47080;BME280;33067;49.296;14.470;2023-02-28T05:14:16;97883.93;;;-0.23;37.64
47080;BME280;33067;49.296;14.470;2023-02-28T05:16:42;97884.30;;;-0.72;38.69
47080;BME280;33067;49.296;14.470;2023-02-28T05:19:07;97882.05;;;-0.62;38.38
47080;BME280;33067;49.296;14.470;2023-02-28T05:21:34;97884.22;;;-0.13;38.25
47080;BME280;33067;49.296;14.470;2023-02-28T05:24:02;97888.72;;;-0.31;38.00
47080;BME280;33067;49.296;14.470;2023-02-28T05:26:25;97886.05;;;0.16;37.44
47080;BME280;33067;49.296;14.470;2023-02-28T05:28:49;97888.34;;;-0.32;38.23
47080;BME280;33067;49.296;14.470;2023-02-28T05:31:15;97894.00;;;-0.59;38.64
47080;BME280;33067;49.296;14.470;2023-02-28T05:33:40;97894.56;;;-0.48;38.51
47080;BME280;33067;49.296;14.470;2023-02-28T05:36:06;97888.77;;;-0.34;38.34
47080;BME280;33067;49.296;14.470;2023-02-28T05:38:30;97891.35;;;0.04;37.88
47080;BME280;33067;49.296;14.470;2023-02-28T05:40:55;97891.65;;;-0.39;38.55
47080;BME280;33067;49.296;14.470;2023-02-28T05:43:21;97898.80;;;-0.26;38.18
47080;BME280;33067;49.296;14.470;2023-02-28T05:45:47;97901.77;;;-0.07;38.19
47080;BME280;33067;49.296;14.470;2023-02-28T05:48:13;97904.68;;;0.35;37.92
47080;BME280;33067;49.296;14.470;2023-02-28T05:50:39;97905.04;;;0.60;37.04
47080;BME280;33067;49.296;14.470;2023-02-28T05:53:04;97908.93;;;0.70;37.12
47080;BME280;33067;49.296;14.470;2023-02-28T05:55:29;97912.60;;;0.39;37.02
47080;BME280;33067;49.296;14.470;2023-02-28T05:57:55;97920.36;;;-0.02;37.62
47080;BME280;33067;49.296;14.470;2023-02-28T06:00:21;97922.03;;;0.06;37.62
47080;BME280;33067;49.296;14.470;2023-02-28T06:02:46;97922.98;;;-0.46;37.93
47080;BME280;33067;49.296;14.470;2023-02-28T06:05:14;97922.11;;;0.37;37.25
47080;BME280;33067;49.296;14.470;2023-02-28T06:07:37;97923.52;;;0.40;37.21
47080;BME280;33067;49.296;14.470;2023-02-28T06:10:03;97925.70;;;0.34;37.13
47080;BME280;33067;49.296;14.470;2023-02-28T06:12:28;97928.63;;;0.31;36.44
47080;BME280;33067;49.296;14.470;2023-02-28T06:14:54;97926.78;;;0.74;36.40
47080;BME280;33067;49.296;14.470;2023-02-28T06:17:19;97929.32;;;0.46;36.46
47080;BME280;33067;49.296;14.470;2023-02-28T06:19:44;97928.24;;;0.88;35.87
47080;BME280;33067;49.296;14.470;2023-02-28T06:22:10;97929.98;;;0.83;35.62
47080;BME280;33067;49.296;14.470;2023-02-28T06:24:35;97935.27;;;0.34;36.38
47080;BME280;33067;49.296;14.470;2023-02-28T06:27:00;97937.28;;;0.63;36.07
47080;BME280;33067;49.296;14.470;2023-02-28T06:29:25;97939.76;;;0.01;36.97
47080;BME280;33067;49.296;14.470;2023-02-28T06:31:50;97943.75;;;1.16;35.87
47080;BME280;33067;49.296;14.470;2023-02-28T06:34:16;97946.09;;;1.16;35.58
47080;BME280;33067;49.296;14.470;2023-02-28T06:36:42;97945.09;;;1.42;35.26
47080;BME280;33067;49.296;14.470;2023-02-28T06:39:07;97951.65;;;1.06;35.52
47080;BME280;33067;49.296;14.470;2023-02-28T06:41:33;97953.14;;;0.58;35.97
47080;BME280;33067;49.296;14.470;2023-02-28T06:43:58;97960.05;;;0.90;35.84
47080;BME280;33067;49.296;14.470;2023-02-28T06:46:23;97959.02;;;0.68;35.94
47080;BME280;33067;49.296;14.470;2023-02-28T06:48:49;97956.73;;;1.12;35.62
47080;BME280;33067;49.296;14.470;2023-02-28T06:51:17;97961.85;;;0.46;35.89
47080;BME280;33067;49.296;14.470;2023-02-28T06:53:40;97966.10;;;1.40;35.18
47080;BME280;33067;49.296;14.470;2023-02-28T06:56:07;97964.26;;;0.55;35.34
47080;BME280;33067;49.296;14.470;2023-02-28T06:58:30;97968.96;;;1.04;35.02
47080;BME280;33067;49.296;14.470;2023-02-28T07:00:56;97969.51;;;1.23;34.97
47080;BME280;33067;49.296;14.470;2023-02-28T07:03:21;97962.55;;;1.66;34.53
47080;BME280;33067;49.296;14.470;2023-02-28T07:05:47;97965.95;;;2.05;34.63
47080;BME280;33067;49.296;14.470;2023-02-28T07:08:12;97964.01;;;1.14;34.43
47080;BME280;33067;49.296;14.470;2023-02-28T07:10:38;97963.86;;;2.30;33.99
47080;BME280;33067;49.296;14.470;2023-02-28T07:13:04;97967.97;;;2.16;33.83
47080;BME280;33067;49.296;14.470;2023-02-28T07:15:29;97971.29;;;1.51;33.92
47080;BME280;33067;49.296;14.470;2023-02-28T07:17:54;97972.85;;;1.63;33.98
47080;BME280;33067;49.296;14.470;2023-02-28T07:20:19;97981.20;;;1.67;33.65
47080;BME280;33067;49.296;14.470;2023-02-28T07:22:44;97974.15;;;1.97;33.64
47080;BME280;33067;49.296;14.470;2023-02-28T07:25:10;97977.90;;;2.20;33.53
47080;BME280;33067;49.296;14.470;2023-02-28T07:27:35;97976.53;;;1.38;34.10
47080;BME280;33067;49.296;14.470;2023-02-28T07:30:00;97988.80;;;0.74;35.36
47080;BME280;33067;49.296;14.470;2023-02-28T07:32:26;97987.77;;;1.55;34.62
47080;BME280;33067;49.296;14.470;2023-02-28T07:34:51;97978.53;;;1.66;34.60
47080;BME280;33067;49.296;14.470;2023-02-28T07:37:17;97982.81;;;2.18;34.00
47080;BME280;33067;49.296;14.470;2023-02-28T07:39:42;97982.94;;;2.34;33.34
47080;BME280;33067;49.296;14.470;2023-02-28T07:42:08;97982.08;;;2.21;33.58
47080;BME280;33067;49.296;14.470;2023-02-28T07:44:33;97979.84;;;2.91;33.28
47080;BME280;33067;49.296;14.470;2023-02-28T07:46:58;97979.92;;;3.08;33.19
47080;BME280;33067;49.296;14.470;2023-02-28T07:49:23;97980.14;;;2.58;32.84
47080;BME280;33067;49.296;14.470;2023-02-28T07:51:49;97981.10;;;2.60;32.80
47080;BME280;33067;49.296;14.470;2023-02-28T07:54:14;97978.23;;;1.45;34.07
47080;BME280;33067;49.296;14.470;2023-02-28T07:56:40;97981.15;;;1.68;34.35
47080;BME280;33067;49.296;14.470;2023-02-28T07:59:05;97978.70;;;2.44;33.85
47080;BME280;33067;49.296;14.470;2023-02-28T08:01:31;97976.26;;;2.55;32.97
47080;BME280;33067;49.296;14.470;2023-02-28T08:03:57;97977.77;;;2.77;33.09
47080;BME280;33067;49.296;14.470;2023-02-28T08:06:23;97977.11;;;2.64;33.30
47080;BME280;33067;49.296;14.470;2023-02-28T08:08:47;97979.96;;;2.71;32.92
47080;BME280;33067;49.296;14.470;2023-02-28T08:11:13;97976.44;;;1.96;33.22
47080;BME280;33067;49.296;14.470;2023-02-28T08:13:38;97979.51;;;2.96;33.27
47080;BME280;33067;49.296;14.470;2023-02-28T08:16:03;97980.56;;;1.49;33.77
47080;BME280;33067;49.296;14.470;2023-02-28T08:18:28;97980.91;;;2.68;33.12
47080;BME280;33067;49.296;14.470;2023-02-28T08:20:54;97975.99;;;2.80;32.89
47080;BME280;33067;49.296;14.470;2023-02-28T08:23:19;97977.20;;;2.07;33.78
47080;BME280;33067;49.296;14.470;2023-02-28T08:25:44;97976.71;;;2.86;33.52
47080;BME280;33067;49.296;14.470;2023-02-28T08:28:10;97980.72;;;2.87;33.13
47080;BME280;33067;49.296;14.470;2023-02-28T08:30:35;97979.89;;;2.05;33.50
47080;BME280;33067;49.296;14.470;2023-02-28T08:33:00;97977.29;;;2.03;34.07
47080;BME280;33067;49.296;14.470;2023-02-28T08:35:26;97979.60;;;2.15;34.10
47080;BME280;33067;49.296;14.470;2023-02-28T08:37:52;97983.12;;;1.60;34.54
47080;BME280;33067;49.296;14.470;2023-02-28T08:40:17;97983.27;;;2.34;33.86
47080;BME280;33067;49.296;14.470;2023-02-28T08:42:43;97984.71;;;2.62;34.26
47080;BME280;33067;49.296;14.470;2023-02-28T08:45:09;97983.00;;;2.77;33.50
47080;BME280;33067;49.296;14.470;2023-02-28T08:47:34;97983.83;;;2.70;33.51
47080;BME280;33067;49.296;14.470;2023-02-28T08:50:00;97981.60;;;3.47;32.82
47080;BME280;33067;49.296;14.470;2023-02-28T08:52:25;97982.20;;;3.11;32.66
47080;BME280;33067;49.296;14.470;2023-02-28T08:54:51;97980.55;;;3.54;32.44
47080;BME280;33067;49.296;14.470;2023-02-28T08:57:16;97985.21;;;3.17;32.69
47080;BME280;33067;49.296;14.470;2023-02-28T08:59:42;97985.38;;;2.14;33.93
47080;BME280;33067;49.296;14.470;2023-02-28T09:02:09;97984.59;;;2.77;33.59
47080;BME280;33067;49.296;14.470;2023-02-28T09:04:34;97988.99;;;2.75;33.13
47080;BME280;33067;49.296;14.470;2023-02-28T09:06:58;97986.95;;;2.74;33.62
47080;BME280;33067;49.296;14.470;2023-02-28T09:09:24;97994.71;;;2.78;33.53
47080;BME280;33067;49.296;14.470;2023-02-28T09:11:49;97987.57;;;1.92;34.08
47080;BME280;33067;49.296;14.470;2023-02-28T09:14:14;98003.71;;;2.02;34.19
47080;BME280;33067;49.296;14.470;2023-02-28T09:16:40;97991.53;;;2.64;34.31
47080;BME280;33067;49.296;14.470;2023-02-28T09:19:05;97996.26;;;2.40;34.20
47080;BME280;33067;49.296;14.470;2023-02-28T09:21:31;97985.26;;;2.42;34.15
47080;BME280;33067;49.296;14.470;2023-02-28T09:23:56;97991.51;;;2.74;34.02
47080;BME280;33067;49.296;14.470;2023-02-28T09:26:24;97987.55;;;2.30;34.42
47080;BME280;33067;49.296;14.470;2023-02-28T09:28:48;97983.86;;;1.58;35.63
47080;BME280;33067;49.296;14.470;2023-02-28T09:31:16;97989.54;;;2.50;34.18
47080;BME280;33067;49.296;14.470;2023-02-28T09:33:38;97987.29;;;2.74;34.62
47080;BME280;33067;49.296;14.470;2023-02-28T09:36:04;97986.21;;;2.17;34.89
47080;BME280;33067;49.296;14.470;2023-02-28T09:38:29;97988.76;;;1.62;35.21
47080;BME280;33067;49.296;14.470;2023-02-28T09:40:57;97991.76;;;2.68;34.53
47080;BME280;33067;49.296;14.470;2023-02-28T09:43:22;97992.59;;;1.58;34.74
47080;BME280;33067;49.296;14.470;2023-02-28T09:45:50;97982.22;;;1.28;36.14
47080;BME280;33067;49.296;14.470;2023-02-28T09:48:14;97987.12;;;2.58;34.27
47080;BME280;33067;49.296;14.470;2023-02-28T09:50:38;97988.54;;;2.62;33.22
47080;BME280;33067;49.296;14.470;2023-02-28T09:53:05;97982.16;;;2.01;34.69
47080;BME280;33067;49.296;14.470;2023-02-28T09:55:30;97983.17;;;2.90;34.92
47080;BME280;33067;49.296;14.470;2023-02-28T09:57:52;97978.81;;;3.03;34.81
47080;BME280;33067;49.296;14.470;2023-02-28T10:00:20;97974.55;;;3.52;33.38
47080;BME280;33067;49.296;14.470;2023-02-28T10:02:54;97967.13;;;3.72;33.42
47080;BME280;33067;49.296;14.470;2023-02-28T10:05:11;97966.65;;;3.73;32.76
47080;BME280;33067;49.296;14.470;2023-02-28T10:07:47;97970.24;;;4.03;32.92
47080;BME280;33067;49.296;14.470;2023-02-28T10:10:02;97978.78;;;3.51;33.11
47080;BME280;33067;49.296;14.470;2023-02-28T10:12:26;97980.51;;;3.61;32.84
47080;BME280;33067;49.296;14.470;2023-02-28T10:14:52;97975.29;;;3.74;32.72
47080;BME280;33067;49.296;14.470;2023-02-28T10:17:19;97976.54;;;3.65;33.17
47080;BME280;33067;49.296;14.470;2023-02-28T10:19:44;97968.83;;;3.77;33.03
47080;BME280;33067;49.296;14.470;2023-02-28T10:22:11;97971.58;;;4.31;32.62
47080;BME280;33067;49.296;14.470;2023-02-28T10:24:34;97971.64;;;3.96;32.10
47080;BME280;33067;49.296;14.470;2023-02-28T10:27:01;97977.74;;;2.98;33.21
47080;BME280;33067;49.296;14.470;2023-02-28T10:29:22;97978.54;;;2.23;34.50
47080;BME280;33067;49.296;14.470;2023-02-28T10:31:47;97989.53;;;2.46;34.27
47080;BME280;33067;49.296;14.470;2023-02-28T10:34:13;97970.31;;;2.58;34.53
47080;BME280;33067;49.296;14.470;2023-02-28T10:36:38;97984.07;;;1.98;34.86
47080;BME280;33067;49.296;14.470;2023-02-28T10:41:30;97966.46;;;3.42;33.37
47080;BME280;33067;49.296;14.470;2023-02-28T10:46:20;97967.66;;;3.33;33.78
47080;BME280;33067;49.296;14.470;2023-02-28T10:48:47;97973.93;;;3.34;33.45
47080;BME280;33067;49.296;14.470;2023-02-28T10:51:11;97974.93;;;2.65;34.60
47080;BME280;33067;49.296;14.470;2023-02-28T10:53:40;97964.16;;;3.85;33.34
47080;BME280;33067;49.296;14.470;2023-02-28T10:56:04;97963.81;;;4.13;32.71
47080;BME280;33067;49.296;14.470;2023-02-28T10:58:28;97963.66;;;2.84;34.35
47080;BME280;33067;49.296;14.470;2023-02-28T11:00:52;97959.24;;;3.82;33.53
47080;BME280;33067;49.296;14.470;2023-02-28T11:03:25;97965.45;;;3.25;34.24
47080;BME280;33067;49.296;14.470;2023-02-28T11:05:42;97966.31;;;3.51;33.90
47080;BME280;33067;49.296;14.470;2023-02-28T11:08:12;97976.44;;;2.29;35.71
47080;BME280;33067;49.296;14.470;2023-02-28T11:10:33;97980.08;;;1.76;36.43
47080;BME280;33067;49.296;14.470;2023-02-28T11:12:58;97975.95;;;2.35;35.94
47080;BME280;33067;49.296;14.470;2023-02-28T11:15:25;97975.45;;;2.54;35.88
47080;BME280;33067;49.296;14.470;2023-02-28T11:17:54;97965.74;;;3.36;35.02
47080;BME280;33067;49.296;14.470;2023-02-28T11:20:21;97968.47;;;3.04;34.30
47080;BME280;33067;49.296;14.470;2023-02-28T11:22:44;97967.14;;;3.05;34.84
47080;BME280;33067;49.296;14.470;2023-02-28T11:25:09;97963.76;;;2.94;35.19
47080;BME280;33067;49.296;14.470;2023-02-28T11:27:44;97965.22;;;3.42;35.08
47080;BME280;33067;49.296;14.470;2023-02-28T11:29:58;97963.01;;;2.53;35.53
47080;BME280;33067;49.296;14.470;2023-02-28T11:32:23;97956.71;;;3.69;34.18
47080;BME280;33067;49.296;14.470;2023-02-28T11:37:15;97964.09;;;3.42;34.51
47080;BME280;33067;49.296;14.470;2023-02-28T11:39:38;97968.13;;;2.07;35.59
47080;BME280;33067;49.296;14.470;2023-02-28T11:44:38;97949.36;;;2.61;35.65
47080;BME280;33067;49.296;14.470;2023-02-28T11:46:56;97955.89;;;2.63;35.99
47080;BME280;33067;49.296;14.470;2023-02-28T11:49:29;97950.48;;;3.18;35.63
47080;BME280;33067;49.296;14.470;2023-02-28T11:51:49;97952.42;;;2.78;35.61
47080;BME280;33067;49.296;14.470;2023-02-28T11:54:24;97942.39;;;2.74;36.49
47080;BME280;33067;49.296;14.470;2023-02-28T11:56:38;97937.18;;;2.76;35.55
47080;BME280;33067;49.296;14.470;2023-02-28T11:59:13;97938.61;;;2.85;36.69
47080;BME280;33067;49.296;14.470;2023-02-28T12:01:36;97946.87;;;2.57;36.00
47080;BME280;33067;49.296;14.470;2023-02-28T12:04:03;97943.84;;;2.89;35.78
47080;BME280;33067;49.296;14.470;2023-02-28T12:06:22;97943.99;;;3.02;35.44
47080;BME280;33067;49.296;14.470;2023-02-28T12:08:56;97936.20;;;3.37;35.79
47080;BME280;33067;49.296;14.470;2023-02-28T12:11:13;97943.46;;;2.54;36.69
47080;BME280;33067;49.296;14.470;2023-02-28T12:13:43;97931.88;;;3.65;34.81
47080;BME280;33067;49.296;14.470;2023-02-28T12:18:34;97926.02;;;4.08;33.92
47080;BME280;33067;49.296;14.470;2023-02-28T12:20:54;97917.92;;;3.99;34.33
47080;BME280;33067;49.296;14.470;2023-02-28T12:23:28;97918.74;;;4.27;34.52
47080;BME280;33067;49.296;14.470;2023-02-28T12:25:53;97931.01;;;3.66;34.20
47080;BME280;33067;49.296;14.470;2023-02-28T12:28:08;97924.18;;;3.27;35.58
47080;BME280;33067;49.296;14.470;2023-02-28T12:30:34;97924.12;;;2.87;35.77
47080;BME280;33067;49.296;14.470;2023-02-28T12:33:02;97923.14;;;3.42;34.71
47080;BME280;33067;49.296;14.470;2023-02-28T12:35:26;97925.14;;;2.32;36.11
47080;BME280;33067;49.296;14.470;2023-02-28T12:37:53;97920.84;;;3.34;35.01
47080;BME280;33067;49.296;14.470;2023-02-28T12:40:17;97916.66;;;3.38;34.53
47080;BME280;33067;49.296;14.470;2023-02-28T12:42:42;97919.08;;;2.83;35.26
47080;BME280;33067;49.296;14.470;2023-02-28T12:45:10;97923.77;;;2.87;35.53
47080;BME280;33067;49.296;14.470;2023-02-28T12:47:30;97917.96;;;2.79;35.86
47080;BME280;33067;49.296;14.470;2023-02-28T12:49:58;97915.03;;;3.44;34.93
47080;BME280;33067;49.296;14.470;2023-02-28T12:52:24;97917.53;;;3.05;35.47
47080;BME280;33067;49.296;14.470;2023-02-28T12:54:49;97937.08;;;2.11;36.54
47080;BME280;33067;49.296;14.470;2023-02-28T12:57:15;97911.32;;;3.18;35.46
47080;BME280;33067;49.296;14.470;2023-02-28T12:59:41;97920.36;;;2.78;35.63
47080;BME280;33067;49.296;14.470;2023-02-28T13:02:11;97915.94;;;2.59;36.18
47080;BME280;33067;49.296;14.470;2023-02-28T13:04:41;97917.34;;;3.33;35.43
47080;BME280;33067;49.296;14.470;2023-02-28T13:07:05;97909.59;;;3.39;34.93